Time,TemperatureF,DewpointF,PressureIn,WindDirection,WindDirectionDegrees,WindSpeedMPH,WindSpeedGustMPH,Humidity,HourlyPrecipIn,Conditions,Clouds,dailyrainin,SoftwareType,DateUTC
2013-04-09 00:00:00,60.3,49.3,30.06,ENE,58,2.0,2.0,67,0.00,,---,0.00,VWS V14.01,2013-04-09 04:00:00,
2013-04-09 00:05:00,60.2,49.2,30.06,WNW,291,1.0,1.0,67,0.00,,---,0.00,VWS V14.01,2013-04-09 04:05:00,
2013-04-09 00:10:00,60.1,49.5,30.06,ENE,60,2.0,2.0,68,0.00,,---,0.00,VWS V14.01,2013-04-09 04:10:00,
2013-04-09 00:15:00,59.6,49.4,30.06,WNW,292,1.0,4.0,69,0.00,,---,0.00,VWS V14.01,2013-04-09 04:15:00,
2013-04-09 00:20:00,59.3,49.1,30.06,East,85,1.0,2.0,69,0.00,,---,0.00,VWS V14.01,2013-04-09 04:20:00,
2013-04-09 00:25:00,59.4,49.2,30.06,East,85,0.0,2.0,69,0.00,,---,0.00,VWS V14.01,2013-04-09 04:25:00,
2013-04-09 00:30:00,59.4,49.2,30.06,NNE,25,0.0,1.0,69,0.00,,---,0.00,VWS V14.01,2013-04-09 04:30:00,
2013-04-09 00:35:00,58.9,49.2,30.06,NE,39,1.0,1.0,70,0.00,,---,0.00,VWS V14.01,2013-04-09 04:35:00,
2013-04-09 00:40:00,58.6,49.2,30.06,NE,39,3.0,3.0,71,0.00,,---,0.00,VWS V14.01,2013-04-09 04:40:00,
2013-04-09 00:45:00,58.9,49.5,30.07,NE,40,2.0,2.0,71,0.00,,---,0.00,VWS V14.01,2013-04-09 04:45:00,
2013-04-09 00:51:00,58.6,49.2,30.07,NE,43,2.0,2.0,71,0.00,,---,0.00,VWS V14.01,2013-04-09 04:51:00,
2013-04-09 00:55:00,58.5,49.1,30.07,NE,51,1.0,1.0,71,0.00,,---,0.00,VWS V14.01,2013-04-09 04:55:00,
2013-04-09 01:00:00,58.6,49.2,30.06,NE,56,0.0,1.0,71,0.00,,---,0.00,VWS V14.01,2013-04-09 05:00:00,
2013-04-09 01:06:00,58.4,49.4,30.07,NE,56,1.0,1.0,72,0.00,,---,0.00,VWS V14.01,2013-04-09 05:06:00,
2013-04-09 01:11:00,58.1,49.1,30.07,NE,56,0.0,0.0,72,0.00,,---,0.00,VWS V14.01,2013-04-09 05:11:00,
2013-04-09 01:16:00,58.3,49.3,30.07,NE,56,2.0,2.0,72,0.00,,---,0.00,VWS V14.01,2013-04-09 05:16:00,
2013-04-09 01:21:00,57.9,49.3,30.07,NE,56,1.0,1.0,73,0.00,,---,0.00,VWS V14.01,2013-04-09 05:21:00,
2013-04-09 01:26:00,57.7,49.1,30.07,NE,55,1.0,1.0,73,0.00,,---,0.00,VWS V14.01,2013-04-09 05:26:00,
2013-04-09 01:31:00,57.7,49.5,30.07,NE,56,1.0,1.0,74,0.00,,---,0.00,VWS V14.01,2013-04-09 05:31:00,
2013-04-09 01:36:00,58.0,49.4,30.07,NE,56,1.0,1.0,73,0.00,,---,0.00,VWS V14.01,2013-04-09 05:36:00,
2013-04-09 01:41:00,57.6,49.4,30.07,ENE,57,1.0,1.0,74,0.00,,---,0.00,VWS V14.01,2013-04-09 05:41:00,
2013-04-09 01:46:00,57.7,49.5,30.07,ENE,72,1.0,1.0,74,0.00,,---,0.00,VWS V14.01,2013-04-09 05:46:00,
2013-04-09 01:51:00,58.0,49.4,30.07,ENE,58,2.0,2.0,73,0.00,,---,0.00,VWS V14.01,2013-04-09 05:51:00,
2013-04-09 01:55:00,57.6,49.4,30.07,ENE,58,1.0,1.0,74,0.00,,---,0.00,VWS V14.01,2013-04-09 05:55:00,
2013-04-09 02:00:00,57.6,49.4,30.07,NE,47,1.0,1.0,74,0.00,,---,0.00,VWS V14.01,2013-04-09 06:00:00,
2013-04-09 02:05:00,57.8,49.6,30.07,NE,46,1.0,1.0,74,0.00,,---,0.00,VWS V14.01,2013-04-09 06:05:00,
2013-04-09 02:10:00,57.5,49.3,30.07,NE,46,1.0,1.0,74,0.00,,---,0.00,VWS V14.01,2013-04-09 06:10:00,
2013-04-09 02:16:00,57.5,49.3,30.07,NE,47,1.0,1.0,74,0.00,,---,0.00,VWS V14.01,2013-04-09 06:16:00,
2013-04-09 02:21:00,57.4,49.2,30.07,NE,47,1.0,1.0,74,0.00,,---,0.00,VWS V14.01,2013-04-09 06:21:00,
2013-04-09 02:26:00,57.1,49.3,30.06,NE,47,1.0,1.0,75,0.00,,---,0.00,VWS V14.01,2013-04-09 06:26:00,
2013-04-09 02:31:00,57.3,49.5,30.06,NE,43,1.0,1.0,75,0.00,,---,0.00,VWS V14.01,2013-04-09 06:31:00,
2013-04-09 02:36:00,57.2,49.4,30.07,NE,46,1.0,1.0,75,0.00,,---,0.00,VWS V14.01,2013-04-09 06:36:00,
2013-04-09 02:41:00,57.0,49.2,30.07,NE,46,1.0,1.0,75,0.00,,---,0.00,VWS V14.01,2013-04-09 06:41:00,
2013-04-09 02:46:00,56.9,49.4,30.06,NE,46,1.0,1.0,76,0.00,,---,0.00,VWS V14.01,2013-04-09 06:46:00,
2013-04-09 02:51:00,56.8,49.3,30.06,NE,46,0.0,0.0,76,0.00,,---,0.00,VWS V14.01,2013-04-09 06:51:00,
2013-04-09 02:56:00,56.7,49.2,30.06,NE,46,1.0,1.0,76,0.00,,---,0.00,VWS V14.01,2013-04-09 06:56:00,
2013-04-09 03:01:00,56.5,49.4,30.06,NE,46,1.0,1.0,77,0.00,,---,0.00,VWS V14.01,2013-04-09 07:01:00,
2013-04-09 03:06:00,56.6,49.5,30.06,NE,46,1.0,1.0,77,0.00,,---,0.00,VWS V14.01,2013-04-09 07:06:00,
2013-04-09 03:11:00,56.6,49.5,30.06,NE,46,1.0,1.0,77,0.00,,---,0.00,VWS V14.01,2013-04-09 07:11:00,
2013-04-09 03:16:00,56.4,49.3,30.06,NE,46,1.0,1.0,77,0.00,,---,0.00,VWS V14.01,2013-04-09 07:16:00,
2013-04-09 03:21:00,56.4,49.3,30.06,NE,46,1.0,1.0,77,0.00,,---,0.00,VWS V14.01,2013-04-09 07:21:00,
2013-04-09 03:26:00,56.3,49.2,30.06,NE,46,1.0,1.0,77,0.00,,---,0.00,VWS V14.01,2013-04-09 07:26:00,
2013-04-09 03:31:00,56.3,49.2,30.06,NE,46,0.0,0.0,77,0.00,,---,0.00,VWS V14.01,2013-04-09 07:31:00,
2013-04-09 03:36:00,56.3,49.2,30.06,NE,46,1.0,1.0,77,0.00,,---,0.00,VWS V14.01,2013-04-09 07:36:00,
2013-04-09 03:41:00,56.1,49.3,30.06,NE,46,0.0,0.0,78,0.00,,---,0.00,VWS V14.01,2013-04-09 07:41:00,
2013-04-09 03:46:00,56.0,49.2,30.06,NE,46,1.0,1.0,78,0.00,,---,0.00,VWS V14.01,2013-04-09 07:46:00,
2013-04-09 03:51:00,56.1,49.3,30.06,NE,46,0.0,0.0,78,0.00,,---,0.00,VWS V14.01,2013-04-09 07:51:00,
2013-04-09 03:56:00,56.3,49.5,30.06,NE,46,1.0,1.0,78,0.00,,---,0.00,VWS V14.01,2013-04-09 07:56:00,
2013-04-09 04:01:00,56.2,49.4,30.06,NE,46,0.0,0.0,78,0.00,,---,0.00,VWS V14.01,2013-04-09 08:01:00,
2013-04-09 04:06:00,56.2,49.4,30.06,NE,46,0.0,1.0,78,0.00,,---,0.00,VWS V14.01,2013-04-09 08:06:00,
2013-04-09 04:11:00,56.2,49.4,30.07,NE,46,0.0,0.0,78,0.00,,---,0.00,VWS V14.01,2013-04-09 08:11:00,
2013-04-09 04:16:00,56.2,49.4,30.06,NE,46,1.0,1.0,78,0.00,,---,0.00,VWS V14.01,2013-04-09 08:16:00,
2013-04-09 04:21:00,56.2,49.4,30.07,NE,46,0.0,1.0,78,0.00,,---,0.00,VWS V14.01,2013-04-09 08:21:00,
2013-04-09 04:26:00,56.4,49.3,30.07,NE,46,1.0,1.0,77,0.00,,---,0.00,VWS V14.01,2013-04-09 08:26:00,
2013-04-09 04:31:00,56.1,49.3,30.07,NE,46,1.0,1.0,78,0.00,,---,0.00,VWS V14.01,2013-04-09 08:31:00,
2013-04-09 04:36:00,56.1,49.3,30.07,NE,46,0.0,0.0,78,0.00,,---,0.00,VWS V14.01,2013-04-09 08:36:00,
2013-04-09 04:41:00,56.1,49.3,30.07,NE,46,0.0,0.0,78,0.00,,---,0.00,VWS V14.01,2013-04-09 08:41:00,
2013-04-09 04:46:00,56.2,49.4,30.07,NE,46,1.0,1.0,78,0.00,,---,0.00,VWS V14.01,2013-04-09 08:46:00,
2013-04-09 04:51:00,56.4,49.6,30.07,NE,46,0.0,1.0,78,0.00,,---,0.00,VWS V14.01,2013-04-09 08:51:00,
2013-04-09 04:56:00,56.2,49.4,30.07,NE,46,0.0,1.0,78,0.00,,---,0.00,VWS V14.01,2013-04-09 08:56:00,
2013-04-09 05:01:00,56.0,49.2,30.07,NE,46,0.0,0.0,78,0.00,,---,0.00,VWS V14.01,2013-04-09 09:01:00,
2013-04-09 05:06:00,55.9,49.2,30.07,NE,46,0.0,0.0,78,0.00,,---,0.00,VWS V14.01,2013-04-09 09:06:00,
2013-04-09 05:11:00,56.1,49.3,30.07,NE,46,0.0,0.0,78,0.00,,---,0.00,VWS V14.01,2013-04-09 09:11:00,
2013-04-09 05:16:00,56.2,49.4,30.08,NE,46,1.0,1.0,78,0.00,,---,0.00,VWS V14.01,2013-04-09 09:16:00,
2013-04-09 05:21:00,56.1,49.3,30.08,NE,46,1.0,1.0,78,0.00,,---,0.00,VWS V14.01,2013-04-09 09:21:00,
2013-04-09 05:26:00,56.1,49.3,30.08,NE,46,1.0,1.0,78,0.00,,---,0.00,VWS V14.01,2013-04-09 09:26:00,
2013-04-09 05:31:00,55.9,49.2,30.08,NE,46,1.0,1.0,78,0.00,,---,0.00,VWS V14.01,2013-04-09 09:31:00,
2013-04-09 05:36:00,55.6,49.2,30.08,NE,46,0.0,0.0,79,0.00,,---,0.00,VWS V14.01,2013-04-09 09:36:00,
2013-04-09 05:41:00,55.5,49.1,30.08,NE,46,1.0,1.0,79,0.00,,---,0.00,VWS V14.01,2013-04-09 09:41:00,
2013-04-09 05:46:00,55.5,49.1,30.08,NE,46,1.0,1.0,79,0.00,,---,0.00,VWS V14.01,2013-04-09 09:46:00,
2013-04-09 05:51:00,55.4,49.0,30.08,NE,46,1.0,1.0,79,0.00,,---,0.00,VWS V14.01,2013-04-09 09:51:00,
2013-04-09 05:57:00,55.3,49.2,30.08,NE,46,1.0,1.0,80,0.00,,---,0.00,VWS V14.01,2013-04-09 09:57:00,
2013-04-09 06:02:00,55.4,49.3,30.08,NE,46,1.0,1.0,80,0.00,,---,0.00,VWS V14.01,2013-04-09 10:02:00,
2013-04-09 06:07:00,56.0,49.6,30.08,NE,46,1.0,1.0,79,0.00,,---,0.00,VWS V14.01,2013-04-09 10:07:00,
2013-04-09 06:12:00,56.0,49.6,30.08,NE,46,1.0,1.0,79,0.00,,---,0.00,VWS V14.01,2013-04-09 10:12:00,
2013-04-09 06:17:00,55.8,49.4,30.09,NE,46,0.0,1.0,79,0.00,,---,0.00,VWS V14.01,2013-04-09 10:17:00,
2013-04-09 06:22:00,55.8,49.4,30.09,NE,46,1.0,1.0,79,0.00,,---,0.00,VWS V14.01,2013-04-09 10:22:00,
2013-04-09 06:27:00,56.3,49.9,30.09,NE,46,1.0,1.0,79,0.00,,---,0.00,VWS V14.01,2013-04-09 10:27:00,
2013-04-09 06:32:00,56.2,49.8,30.09,NE,46,0.0,0.0,79,0.00,,---,0.00,VWS V14.01,2013-04-09 10:32:00,
2013-04-09 06:37:00,55.9,49.5,30.09,NE,46,1.0,1.0,79,0.00,,---,0.00,VWS V14.01,2013-04-09 10:37:00,
2013-04-09 06:42:00,56.0,49.6,30.09,NE,46,1.0,1.0,79,0.00,,---,0.00,VWS V14.01,2013-04-09 10:42:00,
2013-04-09 06:47:00,55.9,49.5,30.09,NE,46,1.0,1.0,79,0.00,,---,0.00,VWS V14.01,2013-04-09 10:47:00,
2013-04-09 06:52:00,55.9,49.8,30.10,NE,46,1.0,1.0,80,0.00,,---,0.00,VWS V14.01,2013-04-09 10:52:00,
2013-04-09 06:57:00,56.0,49.6,30.10,NE,46,1.0,1.0,79,0.00,,---,0.00,VWS V14.01,2013-04-09 10:57:00,
2013-04-09 07:02:00,55.8,49.7,30.10,NE,46,1.0,1.0,80,0.00,,---,0.00,VWS V14.01,2013-04-09 11:02:00,
2013-04-09 07:07:00,55.8,49.7,30.10,NE,46,0.0,1.0,80,0.00,,---,0.00,VWS V14.01,2013-04-09 11:07:00,
2013-04-09 07:12:00,55.8,49.7,30.10,NE,46,1.0,1.0,80,0.00,,---,0.00,VWS V14.01,2013-04-09 11:12:00,
2013-04-09 07:17:00,55.9,49.8,30.11,NE,46,0.0,1.0,80,0.00,,---,0.00,VWS V14.01,2013-04-09 11:17:00,
2013-04-09 07:22:00,55.6,49.5,30.11,NE,46,1.0,1.0,80,0.00,,---,0.00,VWS V14.01,2013-04-09 11:22:00,
2013-04-09 07:27:00,55.5,49.8,30.11,NE,46,1.0,1.0,81,0.00,,---,0.00,VWS V14.01,2013-04-09 11:27:00,
2013-04-09 07:32:00,55.6,49.9,30.11,NE,46,0.0,0.0,81,0.00,,---,0.00,VWS V14.01,2013-04-09 11:32:00,
2013-04-09 07:37:00,55.7,50.0,30.11,NE,46,0.0,0.0,81,0.00,,---,0.00,VWS V14.01,2013-04-09 11:37:00,
2013-04-09 07:42:00,55.9,50.2,30.11,NE,46,1.0,1.0,81,0.00,,---,0.00,VWS V14.01,2013-04-09 11:42:00,
2013-04-09 07:47:00,56.1,50.0,30.11,NE,46,0.0,0.0,80,0.00,,---,0.00,VWS V14.01,2013-04-09 11:47:00,
2013-04-09 07:52:00,56.0,50.3,30.12,NE,46,0.0,0.0,81,0.00,,---,0.00,VWS V14.01,2013-04-09 11:52:00,